sensor_id;sensor_type;location;lat;lon;timestamp;P1;durP1;ratioP1;P2;durP2;ratioP2
16039;SDS011;8124;48.634;8.120;2023-07-20T00:00:42;45.35;;;40.47;;
16039;SDS011;8124;48.634;8.120;2023-07-20T00:05:46;45.80;;;40.88;;
16039;SDS011;8124;48.634;8.120;2023-07-20T00:10:49;45.70;;;40.55;;
16039;SDS011;8124;48.634;8.120;2023-07-20T00:15:52;45.13;;;40.30;;
16039;SDS011;8124;48.634;8.120;2023-07-20T00:20:57;45.45;;;40.42;;
16039;SDS011;8124;48.634;8.120;2023-07-20T00:26:01;46.45;;;40.67;;
16039;SDS011;8124;48.634;8.120;2023-07-20T00:31:04;45.75;;;40.85;;
16039;SDS011;8124;48.634;8.120;2023-07-20T00:36:08;45.85;;;40.95;;
16039;SDS011;8124;48.634;8.120;2023-07-20T00:41:11;45.30;;;40.40;;
16039;SDS011;8124;48.634;8.120;2023-07-20T00:46:15;45.47;;;40.53;;
16039;SDS011;8124;48.634;8.120;2023-07-20T00:51:20;47.38;;;40.10;;
16039;SDS011;8124;48.634;8.120;2023-07-20T00:56:24;44.90;;;39.83;;
16039;SDS011;8124;48.634;8.120;2023-07-20T01:01:27;45.35;;;40.30;;
16039;SDS011;8124;48.634;8.120;2023-07-20T01:06:33;47.17;;;40.20;;
16039;SDS011;8124;48.634;8.120;2023-07-20T01:11:46;44.65;;;39.85;;
16039;SDS011;8124;48.634;8.120;2023-07-20T01:16:54;45.83;;;40.00;;
16039;SDS011;8124;48.634;8.120;2023-07-20T01:22:01;45.05;;;40.00;;
16039;SDS011;8124;48.634;8.120;2023-07-20T01:32:40;46.92;;;40.17;;
16039;SDS011;8124;48.634;8.120;2023-07-20T01:37:45;46.53;;;41.50;;
16039;SDS011;8124;48.634;8.120;2023-07-20T01:42:49;45.30;;;40.40;;
16039;SDS011;8124;48.634;8.120;2023-07-20T01:47:55;44.97;;;40.17;;
16039;SDS011;8124;48.634;8.120;2023-07-20T01:52:58;44.92;;;39.90;;
16039;SDS011;8124;48.634;8.120;2023-07-20T01:58:00;45.40;;;40.45;;
16039;SDS011;8124;48.634;8.120;2023-07-20T02:03:06;44.78;;;39.97;;
16039;SDS011;8124;48.634;8.120;2023-07-20T02:08:09;45.58;;;40.65;;
16039;SDS011;8124;48.634;8.120;2023-07-20T02:13:12;45.17;;;39.67;;
16039;SDS011;8124;48.634;8.120;2023-07-20T02:18:16;45.40;;;40.40;;
16039;SDS011;8124;48.634;8.120;2023-07-20T02:23:19;44.60;;;39.80;;
16039;SDS011;8124;48.634;8.120;2023-07-20T02:28:22;45.28;;;40.38;;
16039;SDS011;8124;48.634;8.120;2023-07-20T02:33:27;44.70;;;39.85;;
16039;SDS011;8124;48.634;8.120;2023-07-20T02:38:30;46.55;;;39.85;;
16039;SDS011;8124;48.634;8.120;2023-07-20T02:43:33;44.47;;;39.67;;
16039;SDS011;8124;48.634;8.120;2023-07-20T02:48:38;44.40;;;39.60;;
16039;SDS011;8124;48.634;8.120;2023-07-20T02:53:41;44.70;;;39.80;;
16039;SDS011;8124;48.634;8.120;2023-07-20T02:58:44;44.40;;;39.60;;
16039;SDS011;8124;48.634;8.120;2023-07-20T03:03:49;44.33;;;39.42;;
16039;SDS011;8124;48.634;8.120;2023-07-20T03:08:52;44.70;;;39.65;;
16039;SDS011;8124;48.634;8.120;2023-07-20T03:13:55;44.83;;;39.85;;
16039;SDS011;8124;48.634;8.120;2023-07-20T03:18:59;46.25;;;39.97;;
16039;SDS011;8124;48.634;8.120;2023-07-20T03:24:03;44.67;;;39.78;;
16039;SDS011;8124;48.634;8.120;2023-07-20T03:29:07;44.95;;;39.60;;
16039;SDS011;8124;48.634;8.120;2023-07-20T03:34:11;44.30;;;39.55;;
16039;SDS011;8124;48.634;8.120;2023-07-20T03:39:16;44.40;;;39.65;;
16039;SDS011;8124;48.634;8.120;2023-07-20T03:44:19;48.50;;;43.20;;
16039;SDS011;8124;48.634;8.120;2023-07-20T03:49:24;44.75;;;39.65;;
16039;SDS011;8124;48.634;8.120;2023-07-20T03:54:27;43.72;;;38.92;;
16039;SDS011;8124;48.634;8.120;2023-07-20T03:59:30;44.35;;;39.55;;
16039;SDS011;8124;48.634;8.120;2023-07-20T04:04:34;44.47;;;39.60;;
16039;SDS011;8124;48.634;8.120;2023-07-20T04:09:37;44.38;;;39.47;;
16039;SDS011;8124;48.634;8.120;2023-07-20T04:14:40;44.17;;;39.38;;
16039;SDS011;8124;48.634;8.120;2023-07-20T04:19:44;47.85;;;39.55;;
16039;SDS011;8124;48.634;8.120;2023-07-20T04:24:47;46.25;;;40.92;;
16039;SDS011;8124;48.634;8.120;2023-07-20T04:29:51;46.08;;;39.50;;
16039;SDS011;8124;48.634;8.120;2023-07-20T04:34:55;45.85;;;39.45;;
16039;SDS011;8124;48.634;8.120;2023-07-20T04:39:58;44.67;;;39.22;;
16039;SDS011;8124;48.634;8.120;2023-07-20T04:45:02;47.25;;;39.17;;
16039;SDS011;8124;48.634;8.120;2023-07-20T04:50:07;44.38;;;38.88;;
16039;SDS011;8124;48.634;8.120;2023-07-20T04:55:10;44.28;;;39.47;;
16039;SDS011;8124;48.634;8.120;2023-07-20T05:00:13;45.20;;;40.28;;
16039;SDS011;8124;48.634;8.120;2023-07-20T05:05:18;44.58;;;39.80;;
16039;SDS011;8124;48.634;8.120;2023-07-20T05:10:21;45.03;;;39.10;;
16039;SDS011;8124;48.634;8.120;2023-07-20T05:15:24;43.53;;;38.83;;
16039;SDS011;8124;48.634;8.120;2023-07-20T05:20:30;44.50;;;38.50;;
16039;SDS011;8124;48.634;8.120;2023-07-20T05:25:34;43.80;;;39.10;;
16039;SDS011;8124;48.634;8.120;2023-07-20T05:30:37;44.10;;;38.70;;
16039;SDS011;8124;48.634;8.120;2023-07-20T05:35:43;44.78;;;39.25;;
16039;SDS011;8124;48.634;8.120;2023-07-20T05:40:46;43.83;;;39.08;;
16039;SDS011;8124;48.634;8.120;2023-07-20T05:45:49;44.40;;;39.13;;
16039;SDS011;8124;48.634;8.120;2023-07-20T05:50:53;43.95;;;39.15;;
16039;SDS011;8124;48.634;8.120;2023-07-20T05:55:57;43.95;;;39.22;;
16039;SDS011;8124;48.634;8.120;2023-07-20T06:01:00;44.55;;;39.67;;
16039;SDS011;8124;48.634;8.120;2023-07-20T06:06:05;44.30;;;39.45;;
16039;SDS011;8124;48.634;8.120;2023-07-20T06:11:09;46.00;;;39.72;;
16039;SDS011;8124;48.634;8.120;2023-07-20T06:16:12;45.67;;;39.38;;
16039;SDS011;8124;48.634;8.120;2023-07-20T06:21:17;44.50;;;39.22;;
16039;SDS011;8124;48.634;8.120;2023-07-20T06:26:20;48.00;;;39.33;;
16039;SDS011;8124;48.634;8.120;2023-07-20T06:31:23;45.75;;;40.05;;
16039;SDS011;8124;48.634;8.120;2023-07-20T06:36:28;43.97;;;39.17;;
16039;SDS011;8124;48.634;8.120;2023-07-20T06:41:31;47.15;;;39.20;;
16039;SDS011;8124;48.634;8.120;2023-07-20T06:46:37;44.28;;;39.25;;
16039;SDS011;8124;48.634;8.120;2023-07-20T06:51:41;45.97;;;39.38;;
16039;SDS011;8124;48.634;8.120;2023-07-20T06:56:44;44.50;;;39.60;;
16039;SDS011;8124;48.634;8.120;2023-07-20T07:02:07;45.17;;;39.55;;
16039;SDS011;8124;48.634;8.120;2023-07-20T07:07:15;47.15;;;39.78;;
16039;SDS011;8124;48.634;8.120;2023-07-20T07:12:27;44.90;;;39.35;;
16039;SDS011;8124;48.634;8.120;2023-07-20T07:17:30;47.75;;;39.92;;
16039;SDS011;8124;48.634;8.120;2023-07-20T07:22:36;45.10;;;40.20;;
16039;SDS011;8124;48.634;8.120;2023-07-20T07:27:39;44.17;;;39.42;;
16039;SDS011;8124;48.634;8.120;2023-07-20T07:32:42;46.00;;;39.78;;
16039;SDS011;8124;48.634;8.120;2023-07-20T07:37:48;44.10;;;39.33;;
16039;SDS011;8124;48.634;8.120;2023-07-20T07:43:10;43.78;;;39.05;;
16039;SDS011;8124;48.634;8.120;2023-07-20T07:48:15;45.38;;;39.38;;
16039;SDS011;8124;48.634;8.120;2023-07-20T07:53:19;43.95;;;39.15;;
16039;SDS011;8124;48.634;8.120;2023-07-20T07:58:23;43.88;;;39.08;;
16039;SDS011;8124;48.634;8.120;2023-07-20T08:03:26;43.80;;;39.05;;
16039;SDS011;8124;48.634;8.120;2023-07-20T08:08:30;43.70;;;38.95;;
16039;SDS011;8124;48.634;8.120;2023-07-20T08:13:33;45.20;;;39.33;;
16039;SDS011;8124;48.634;8.120;2023-07-20T08:18:37;45.17;;;39.53;;
16039;SDS011;8124;48.634;8.120;2023-07-20T08:23:41;46.85;;;39.85;;
16039;SDS011;8124;48.634;8.120;2023-07-20T08:28:44;45.25;;;40.10;;
16039;SDS011;8124;48.634;8.120;2023-07-20T08:33:49;44.88;;;40.03;;
16039;SDS011;8124;48.634;8.120;2023-07-20T08:38:53;44.30;;;39.50;;
16039;SDS011;8124;48.634;8.120;2023-07-20T08:43:56;45.75;;;39.80;;
16039;SDS011;8124;48.634;8.120;2023-07-20T08:49:00;46.70;;;39.92;;
16039;SDS011;8124;48.634;8.120;2023-07-20T08:54:06;44.40;;;39.60;;
16039;SDS011;8124;48.634;8.120;2023-07-20T08:59:12;48.63;;;39.90;;
16039;SDS011;8124;48.634;8.120;2023-07-20T09:04:16;45.20;;;39.78;;
16039;SDS011;8124;48.634;8.120;2023-07-20T09:09:20;49.45;;;40.13;;
16039;SDS011;8124;48.634;8.120;2023-07-20T09:14:24;45.63;;;40.03;;
16039;SDS011;8124;48.634;8.120;2023-07-20T09:19:27;44.47;;;39.67;;
16039;SDS011;8124;48.634;8.120;2023-07-20T09:24:31;44.85;;;39.78;;
16039;SDS011;8124;48.634;8.120;2023-07-20T09:29:35;44.10;;;39.33;;
16039;SDS011;8124;48.634;8.120;2023-07-20T09:34:50;45.10;;;39.75;;
16039;SDS011;8124;48.634;8.120;2023-07-20T09:39:55;44.47;;;39.63;;
16039;SDS011;8124;48.634;8.120;2023-07-20T09:45:01;44.42;;;39.45;;
16039;SDS011;8124;48.634;8.120;2023-07-20T09:50:04;45.30;;;39.92;;
16039;SDS011;8124;48.634;8.120;2023-07-20T09:55:15;44.97;;;40.15;;
16039;SDS011;8124;48.634;8.120;2023-07-20T10:00:19;45.40;;;39.80;;
16039;SDS011;8124;48.634;8.120;2023-07-20T10:05:25;48.10;;;39.60;;
16039;SDS011;8124;48.634;8.120;2023-07-20T10:10:38;47.03;;;40.33;;
16039;SDS011;8124;48.634;8.120;2023-07-20T10:15:46;44.70;;;39.72;;
16039;SDS011;8124;48.634;8.120;2023-07-20T10:20:51;44.25;;;39.50;;
16039;SDS011;8124;48.634;8.120;2023-07-20T10:26:01;44.85;;;40.08;;
16039;SDS011;8124;48.634;8.120;2023-07-20T10:31:05;45.25;;;40.00;;
16039;SDS011;8124;48.634;8.120;2023-07-20T10:36:10;44.65;;;39.83;;
16039;SDS011;8124;48.634;8.120;2023-07-20T10:41:19;44.40;;;39.67;;
16039;SDS011;8124;48.634;8.120;2023-07-20T10:46:41;44.75;;;39.88;;
16039;SDS011;8124;48.634;8.120;2023-07-20T10:51:47;45.08;;;40.17;;
16039;SDS011;8124;48.634;8.120;2023-07-20T11:02:26;44.42;;;39.63;;
16039;SDS011;8124;48.634;8.120;2023-07-20T11:07:36;44.45;;;39.65;;
16039;SDS011;8124;48.634;8.120;2023-07-20T11:12:41;44.38;;;39.65;;
16039;SDS011;8124;48.634;8.120;2023-07-20T11:18:11;45.95;;;39.90;;
16039;SDS011;8124;48.634;8.120;2023-07-20T11:23:14;45.03;;;39.95;;
16039;SDS011;8124;48.634;8.120;2023-07-20T11:28:19;44.33;;;39.58;;
16039;SDS011;8124;48.634;8.120;2023-07-20T11:33:22;44.53;;;39.72;;
16039;SDS011;8124;48.634;8.120;2023-07-20T11:38:25;44.75;;;39.85;;
16039;SDS011;8124;48.634;8.120;2023-07-20T11:43:30;44.88;;;40.00;;
16039;SDS011;8124;48.634;8.120;2023-07-20T11:48:33;46.05;;;39.53;;
16039;SDS011;8124;48.634;8.120;2023-07-20T11:53:36;45.15;;;39.85;;
16039;SDS011;8124;48.634;8.120;2023-07-20T11:58:44;44.65;;;39.78;;
16039;SDS011;8124;48.634;8.120;2023-07-20T12:03:48;46.60;;;39.78;;
16039;SDS011;8124;48.634;8.120;2023-07-20T12:08:53;45.05;;;40.22;;
16039;SDS011;8124;48.634;8.120;2023-07-20T12:13:59;44.20;;;39.45;;
16039;SDS011;8124;48.634;8.120;2023-07-20T12:19:17;44.80;;;39.97;;
16039;SDS011;8124;48.634;8.120;2023-07-20T12:24:20;44.67;;;39.95;;
16039;SDS011;8124;48.634;8.120;2023-07-20T12:29:24;44.20;;;39.40;;
16039;SDS011;8124;48.634;8.120;2023-07-20T12:34:28;44.70;;;39.83;;
16039;SDS011;8124;48.634;8.120;2023-07-20T12:39:31;44.95;;;40.08;;
16039;SDS011;8124;48.634;8.120;2023-07-20T12:44:35;45.22;;;39.97;;
16039;SDS011;8124;48.634;8.120;2023-07-20T12:49:38;45.45;;;39.83;;
16039;SDS011;8124;48.634;8.120;2023-07-20T12:54:41;45.20;;;39.85;;
16039;SDS011;8124;48.634;8.120;2023-07-20T12:59:46;45.85;;;39.95;;
16039;SDS011;8124;48.634;8.120;2023-07-20T13:04:49;44.92;;;40.15;;
16039;SDS011;8124;48.634;8.120;2023-07-20T13:09:51;44.95;;;40.05;;
16039;SDS011;8124;48.634;8.120;2023-07-20T13:14:56;45.63;;;40.80;;
16039;SDS011;8124;48.634;8.120;2023-07-20T13:20:01;45.30;;;40.25;;
16039;SDS011;8124;48.634;8.120;2023-07-20T13:25:06;44.92;;;40.13;;
16039;SDS011;8124;48.634;8.120;2023-07-20T13:30:12;45.47;;;40.45;;
16039;SDS011;8124;48.634;8.120;2023-07-20T13:35:18;45.05;;;40.25;;
16039;SDS011;8124;48.634;8.120;2023-07-20T13:40:21;45.22;;;40.45;;
16039;SDS011;8124;48.634;8.120;2023-07-20T13:45:26;45.05;;;40.22;;
16039;SDS011;8124;48.634;8.120;2023-07-20T13:50:29;45.63;;;40.63;;
16039;SDS011;8124;48.634;8.120;2023-07-20T13:55:43;45.03;;;40.13;;
16039;SDS011;8124;48.634;8.120;2023-07-20T14:00:50;45.70;;;40.40;;
16039;SDS011;8124;48.634;8.120;2023-07-20T14:05:53;46.13;;;40.03;;
16039;SDS011;8124;48.634;8.120;2023-07-20T14:10:59;44.85;;;40.05;;
16039;SDS011;8124;48.634;8.120;2023-07-20T14:16:06;45.45;;;40.58;;
16039;SDS011;8124;48.634;8.120;2023-07-20T14:21:09;46.67;;;41.72;;
16039;SDS011;8124;48.634;8.120;2023-07-20T14:26:12;45.10;;;40.22;;
16039;SDS011;8124;48.634;8.120;2023-07-20T14:31:17;45.30;;;40.47;;
16039;SDS011;8124;48.634;8.120;2023-07-20T14:36:21;45.35;;;40.45;;
16039;SDS011;8124;48.634;8.120;2023-07-20T14:41:27;45.28;;;40.47;;
16039;SDS011;8124;48.634;8.120;2023-07-20T14:46:31;45.53;;;40.53;;
16039;SDS011;8124;48.634;8.120;2023-07-20T14:51:35;45.05;;;40.25;;
16039;SDS011;8124;48.634;8.120;2023-07-20T14:56:48;45.65;;;40.72;;
16039;SDS011;8124;48.634;8.120;2023-07-20T15:01:56;46.03;;;41.15;;
16039;SDS011;8124;48.634;8.120;2023-07-20T15:07:03;45.25;;;40.45;;
16039;SDS011;8124;48.634;8.120;2023-07-20T15:12:07;45.65;;;40.25;;
16039;SDS011;8124;48.634;8.120;2023-07-20T15:17:13;46.38;;;41.38;;
16039;SDS011;8124;48.634;8.120;2023-07-20T15:22:16;45.35;;;40.45;;
16039;SDS011;8124;48.634;8.120;2023-07-20T15:27:19;45.15;;;40.35;;
16039;SDS011;8124;48.634;8.120;2023-07-20T15:32:24;47.00;;;42.00;;
16039;SDS011;8124;48.634;8.120;2023-07-20T15:37:28;45.22;;;40.42;;
16039;SDS011;8124;48.634;8.120;2023-07-20T15:42:31;45.80;;;40.90;;
16039;SDS011;8124;48.634;8.120;2023-07-20T15:47:40;46.03;;;40.95;;
16039;SDS011;8124;48.634;8.120;2023-07-20T15:52:43;45.35;;;40.55;;
16039;SDS011;8124;48.634;8.120;2023-07-20T15:57:46;45.58;;;40.63;;
16039;SDS011;8124;48.634;8.120;2023-07-20T16:02:50;45.58;;;40.70;;
16039;SDS011;8124;48.634;8.120;2023-07-20T16:07:53;46.60;;;40.65;;
16039;SDS011;8124;48.634;8.120;2023-07-20T16:12:57;45.33;;;40.55;;
16039;SDS011;8124;48.634;8.120;2023-07-20T16:18:02;45.58;;;40.78;;
16039;SDS011;8124;48.634;8.120;2023-07-20T16:23:05;46.22;;;40.80;;
16039;SDS011;8124;48.634;8.120;2023-07-20T16:28:08;46.03;;;41.20;;
16039;SDS011;8124;48.634;8.120;2023-07-20T16:33:14;45.83;;;40.92;;
16039;SDS011;8124;48.634;8.120;2023-07-20T16:38:17;46.40;;;41.25;;
16039;SDS011;8124;48.634;8.120;2023-07-20T16:43:20;46.83;;;41.92;;
16039;SDS011;8124;48.634;8.120;2023-07-20T16:48:27;46.00;;;41.15;;
16039;SDS011;8124;48.634;8.120;2023-07-20T16:53:30;45.92;;;40.92;;
16039;SDS011;8124;48.634;8.120;2023-07-20T16:58:33;46.00;;;41.20;;
16039;SDS011;8124;48.634;8.120;2023-07-20T17:03:38;45.78;;;40.97;;
16039;SDS011;8124;48.634;8.120;2023-07-20T17:08:41;46.33;;;41.42;;
16039;SDS011;8124;48.634;8.120;2023-07-20T17:13:44;46.42;;;41.58;;
16039;SDS011;8124;48.634;8.120;2023-07-20T17:18:48;45.50;;;40.70;;
16039;SDS011;8124;48.634;8.120;2023-07-20T17:23:51;45.67;;;40.83;;
16039;SDS011;8124;48.634;8.120;2023-07-20T17:28:57;46.38;;;41.47;;
16039;SDS011;8124;48.634;8.120;2023-07-20T17:34:03;46.03;;;41.17;;
16039;SDS011;8124;48.634;8.120;2023-07-20T17:39:07;46.80;;;41.90;;
16039;SDS011;8124;48.634;8.120;2023-07-20T17:44:10;46.28;;;41.47;;
16039;SDS011;8124;48.634;8.120;2023-07-20T17:49:14;46.20;;;41.17;;
16039;SDS011;8124;48.634;8.120;2023-07-20T17:54:17;46.88;;;40.95;;
16039;SDS011;8124;48.634;8.120;2023-07-20T17:59:20;46.67;;;41.78;;
16039;SDS011;8124;48.634;8.120;2023-07-20T18:04:24;45.95;;;41.10;;
16039;SDS011;8124;48.634;8.120;2023-07-20T18:09:27;46.20;;;41.30;;
16039;SDS011;8124;48.634;8.120;2023-07-20T18:14:30;46.78;;;41.67;;
16039;SDS011;8124;48.634;8.120;2023-07-20T18:19:35;45.78;;;40.95;;
16039;SDS011;8124;48.634;8.120;2023-07-20T18:24:38;45.83;;;40.92;;
16039;SDS011;8124;48.634;8.120;2023-07-20T18:29:41;47.50;;;41.70;;
16039;SDS011;8124;48.634;8.120;2023-07-20T18:34:45;45.75;;;40.95;;
16039;SDS011;8124;48.634;8.120;2023-07-20T18:39:48;45.90;;;40.90;;
16039;SDS011;8124;48.634;8.120;2023-07-20T18:44:51;46.75;;;41.33;;
16039;SDS011;8124;48.634;8.120;2023-07-20T18:49:57;46.45;;;41.00;;
16039;SDS011;8124;48.634;8.120;2023-07-20T18:55:00;45.30;;;40.50;;
16039;SDS011;8124;48.634;8.120;2023-07-20T19:00:04;45.88;;;41.05;;
16039;SDS011;8124;48.634;8.120;2023-07-20T19:05:10;45.85;;;40.97;;
16039;SDS011;8124;48.634;8.120;2023-07-20T19:10:13;45.50;;;40.70;;
16039;SDS011;8124;48.634;8.120;2023-07-20T19:15:16;45.85;;;41.05;;
16039;SDS011;8124;48.634;8.120;2023-07-20T19:20:20;46.40;;;41.53;;
16039;SDS011;8124;48.634;8.120;2023-07-20T19:25:23;45.58;;;40.78;;
16039;SDS011;8124;48.634;8.120;2023-07-20T19:30:26;46.10;;;41.10;;
16039;SDS011;8124;48.634;8.120;2023-07-20T19:35:31;45.63;;;40.83;;
16039;SDS011;8124;48.634;8.120;2023-07-20T19:46:13;45.72;;;40.83;;
16039;SDS011;8124;48.634;8.120;2023-07-20T19:51:25;45.15;;;40.20;;
16039;SDS011;8124;48.634;8.120;2023-07-20T19:56:42;46.88;;;40.55;;
16039;SDS011;8124;48.634;8.120;2023-07-20T20:01:57;45.15;;;40.35;;
16039;SDS011;8124;48.634;8.120;2023-07-20T20:07:11;47.85;;;40.40;;
16039;SDS011;8124;48.634;8.120;2023-07-20T20:12:28;45.45;;;40.65;;
16039;SDS011;8124;48.634;8.120;2023-07-20T20:17:41;44.45;;;39.65;;
16039;SDS011;8124;48.634;8.120;2023-07-20T20:22:45;44.88;;;40.08;;
16039;SDS011;8124;48.634;8.120;2023-07-20T20:27:49;44.60;;;39.90;;
16039;SDS011;8124;48.634;8.120;2023-07-20T20:32:52;45.05;;;40.25;;
16039;SDS011;8124;48.634;8.120;2023-07-20T20:37:56;44.95;;;40.15;;
16039;SDS011;8124;48.634;8.120;2023-07-20T20:42:59;45.20;;;40.40;;
16039;SDS011;8124;48.634;8.120;2023-07-20T20:48:02;45.35;;;40.45;;
16039;SDS011;8124;48.634;8.120;2023-07-20T20:53:10;44.95;;;40.15;;
16039;SDS011;8124;48.634;8.120;2023-07-20T20:58:13;45.45;;;40.60;;
16039;SDS011;8124;48.634;8.120;2023-07-20T21:03:16;45.85;;;40.85;;
16039;SDS011;8124;48.634;8.120;2023-07-20T21:08:21;48.83;;;40.95;;
16039;SDS011;8124;48.634;8.120;2023-07-20T21:13:24;46.75;;;41.67;;
16039;SDS011;8124;48.634;8.120;2023-07-20T21:18:28;46.55;;;41.50;;
16039;SDS011;8124;48.634;8.120;2023-07-20T21:23:32;47.92;;;41.33;;
16039;SDS011;8124;48.634;8.120;2023-07-20T21:28:35;47.42;;;42.42;;
16039;SDS011;8124;48.634;8.120;2023-07-20T21:33:38;45.72;;;40.75;;
16039;SDS011;8124;48.634;8.120;2023-07-20T21:38:42;45.10;;;40.25;;
16039;SDS011;8124;48.634;8.120;2023-07-20T21:43:45;45.17;;;40.25;;
16039;SDS011;8124;48.634;8.120;2023-07-20T21:48:48;44.83;;;40.03;;
16039;SDS011;8124;48.634;8.120;2023-07-20T21:53:53;44.72;;;39.95;;
16039;SDS011;8124;48.634;8.120;2023-07-20T21:58:56;44.47;;;39.72;;
16039;SDS011;8124;48.634;8.120;2023-07-20T22:03:59;44.35;;;39.55;;
16039;SDS011;8124;48.634;8.120;2023-07-20T22:09:04;44.22;;;39.53;;
16039;SDS011;8124;48.634;8.120;2023-07-20T22:14:07;44.45;;;39.75;;
16039;SDS011;8124;48.634;8.120;2023-07-20T22:19:11;44.72;;;39.92;;
16039;SDS011;8124;48.634;8.120;2023-07-20T22:24:15;44.72;;;39.92;;
16039;SDS011;8124;48.634;8.120;2023-07-20T22:29:18;44.10;;;39.40;;
16039;SDS011;8124;48.634;8.120;2023-07-20T22:34:21;44.05;;;39.25;;
16039;SDS011;8124;48.634;8.120;2023-07-20T22:39:25;44.10;;;39.40;;
16039;SDS011;8124;48.634;8.120;2023-07-20T22:44:29;43.28;;;38.65;;
16039;SDS011;8124;48.634;8.120;2023-07-20T22:49:32;45.55;;;39.40;;
16039;SDS011;8124;48.634;8.120;2023-07-20T22:54:38;44.05;;;39.28;;
16039;SDS011;8124;48.634;8.120;2023-07-20T22:59:41;43.70;;;39.00;;
16039;SDS011;8124;48.634;8.120;2023-07-20T23:04:44;46.10;;;39.15;;
16039;SDS011;8124;48.634;8.120;2023-07-20T23:09:48;44.22;;;39.45;;
16039;SDS011;8124;48.634;8.120;2023-07-20T23:14:52;43.33;;;38.63;;
16039;SDS011;8124;48.634;8.120;2023-07-20T23:19:55;44.17;;;39.38;;
16039;SDS011;8124;48.634;8.120;2023-07-20T23:24:59;43.83;;;39.13;;
16039;SDS011;8124;48.634;8.120;2023-07-20T23:30:02;44.10;;;39.38;;
16039;SDS011;8124;48.634;8.120;2023-07-20T23:35:06;43.55;;;38.83;;
16039;SDS011;8124;48.634;8.120;2023-07-20T23:40:12;43.55;;;38.85;;
16039;SDS011;8124;48.634;8.120;2023-07-20T23:45:17;44.10;;;39.35;;
16039;SDS011;8124;48.634;8.120;2023-07-20T23:50:20;43.20;;;38.60;;
16039;SDS011;8124;48.634;8.120;2023-07-20T23:55:25;44.08;;;39.33;;
